KAZC

Colorado City Municipal Airport

Colorado City, Arizona, USA
METAR KAZC 222135Z AUTO 36007KT 10SM CLR 26/M06 A3005 RMK AO2
Observed Flight Rules
Apr-22 @ 21:35 UTC (22 minutes ago) Visual Flight Rules
Wind Visibility Clouds
360° at 7 knots 10 miles
  • Clear skies
Temperatures Readings
Current 26°C / 79°F
Dewpoint -6°C / 21°F
Humidity 12%
Altimeter 30.05" Hg
Pressure 1018 hPa
Elevation 1486
METAR KAZC 222135Z AUTO 36007KT 10SM CLR 26/M06 A3005 RMK AO2
Observed Flight Rules
Apr-22 @ 21:35 UTC
(22 minutes ago)
VFR
Wind Visibility
360° at 7 knots 10 miles
Clouds
  • Clear skies
Temperature Dewpoint
26°C / 79°F -6°C / 21°F
Humidity Altimeter Pressure
12% 30.05" Hg 1018 hPa